createdAt,value
2018-07-07T00:00:00.284Z,46.14
2018-07-07T00:01:00.973Z,46.23
2018-07-07T00:02:00.258Z,46.04
2018-07-07T00:03:00.962Z,45.85
2018-07-07T00:04:00.963Z,46.04
2018-07-07T00:05:00.913Z,46.14
2018-07-07T00:06:00.261Z,46.62
2018-07-07T00:07:00.990Z,46.53
2018-07-07T00:08:01.049Z,46.72
2018-07-07T00:09:01.092Z,46.91
2018-07-07T00:10:01.913Z,46.81
2018-07-07T00:11:01.027Z,47.10
2018-07-07T00:12:01.319Z,47.20
2018-07-07T00:13:01.628Z,47.27
2018-07-07T00:14:01.577Z,47.20
2018-07-07T00:15:01.873Z,47.49
2018-07-07T00:16:01.834Z,47.58
2018-07-07T00:17:01.618Z,47.49
2018-07-07T00:18:01.802Z,48.16
2018-07-07T00:19:01.306Z,47.97
2018-07-07T00:20:01.364Z,47.94
2018-07-07T00:21:01.767Z,48.54
2018-07-07T00:22:01.794Z,48.54
2018-07-07T00:23:01.314Z,48.64
2018-07-07T00:24:03.594Z,48.04
2018-07-07T00:25:01.847Z,48.61
2018-07-07T00:26:01.317Z,48.61
2018-07-07T00:27:01.794Z,48.81
2018-07-07T00:28:01.811Z,48.61
2018-07-07T00:29:01.362Z,49.00
2018-07-07T00:30:01.835Z,49.00
2018-07-07T00:31:01.847Z,49.19
2018-07-07T00:32:01.370Z,49.00
2018-07-07T00:33:01.836Z,48.71
2018-07-07T00:34:02.035Z,49.00
2018-07-07T00:35:01.333Z,49.67
2018-07-07T00:36:01.852Z,49.38
2018-07-07T00:37:01.852Z,49.77
2018-07-07T00:38:01.355Z,49.67
2018-07-07T00:39:01.815Z,49.77
2018-07-07T00:40:04.073Z,49.77
2018-07-07T00:41:01.325Z,49.57
2018-07-07T00:42:01.775Z,50.34
2018-07-07T00:43:01.405Z,50.42
2018-07-07T00:44:01.796Z,50.61
2018-07-07T00:45:01.799Z,50.80
2018-07-07T00:46:01.839Z,50.15
2018-07-07T00:47:01.757Z,50.34
2018-07-07T00:48:01.811Z,50.61
2018-07-07T00:49:01.792Z,50.99
2018-07-07T00:50:01.798Z,50.90
2018-07-07T00:51:01.763Z,51.18
2018-07-07T00:52:01.802Z,51.18
2018-07-07T00:53:01.791Z,51.47
2018-07-07T00:54:01.850Z,51.37
2018-07-07T00:55:01.802Z,51.28
2018-07-07T00:56:01.849Z,51.57
2018-07-07T00:57:01.847Z,51.86
2018-07-07T00:58:01.848Z,51.76
2018-07-07T00:59:01.851Z,51.76
2018-07-07T01:00:01.865Z,52.24
2018-07-07T01:01:01.834Z,52.43
2018-07-07T01:02:01.846Z,52.91
2018-07-07T01:03:01.855Z,52.34
2018-07-07T01:04:01.833Z,51.95
2018-07-07T01:05:01.855Z,52.91
2018-07-07T01:06:01.851Z,52.91
2018-07-07T01:07:01.794Z,53.20
2018-07-07T01:08:01.800Z,53.01
2018-07-07T01:09:01.766Z,53.11
2018-07-07T01:10:01.778Z,53.20
2018-07-07T01:11:01.785Z,53.01
2018-07-07T01:12:01.815Z,53.11
2018-07-07T01:13:01.791Z,53.30
2018-07-07T01:14:03.593Z,53.20
2018-07-07T01:15:01.785Z,53.78
2018-07-07T01:16:01.810Z,53.75
2018-07-07T01:17:03.631Z,54.35
2018-07-07T01:18:01.839Z,54.35
2018-07-07T01:19:01.831Z,54.52
2018-07-07T01:20:03.594Z,54.64
2018-07-07T01:21:01.840Z,54.83
2018-07-07T01:22:01.850Z,55.10
2018-07-07T01:23:01.846Z,55.29
2018-07-07T01:24:01.823Z,55.10
2018-07-07T01:25:01.853Z,55.77
2018-07-07T01:26:01.832Z,56.44
2018-07-07T01:27:01.877Z,56.73
2018-07-07T01:28:01.848Z,56.34
2018-07-07T01:29:01.834Z,56.92
2018-07-07T01:30:03.639Z,57.21
2018-07-07T01:31:01.852Z,57.30
2018-07-07T01:32:01.794Z,57.40
2018-07-07T01:33:01.786Z,57.78
2018-07-07T01:34:01.834Z,57.50
2018-07-07T01:35:03.716Z,57.50
2018-07-07T01:36:01.840Z,58.07
2018-07-07T01:37:01.832Z,57.78
2018-07-07T01:38:01.816Z,58.26
2018-07-07T01:39:01.837Z,58.17
2018-07-07T01:40:01.791Z,58.64
2018-07-07T01:41:01.813Z,59.03
2018-07-07T01:42:01.813Z,59.12
2018-07-07T01:43:01.860Z,59.03
2018-07-07T01:44:01.797Z,58.55
2018-07-07T01:45:01.836Z,58.94
2018-07-07T01:46:01.850Z,59.03
2018-07-07T01:47:01.829Z,59.80
2018-07-07T01:48:01.800Z,59.51
2018-07-07T01:49:01.832Z,59.41
2018-07-07T01:50:01.843Z,59.32
2018-07-07T01:51:01.863Z,59.51
2018-07-07T01:52:01.855Z,59.38
2018-07-07T01:53:01.831Z,59.77
2018-07-07T01:54:01.846Z,59.80
2018-07-07T01:55:01.861Z,60.28
2018-07-07T01:56:01.861Z,60.18
2018-07-07T01:57:01.873Z,60.66
2018-07-07T01:58:01.792Z,60.82
2018-07-07T01:59:01.784Z,60.72
2018-07-07T02:00:01.821Z,60.63
2018-07-07T02:01:01.811Z,60.53
2018-07-07T02:02:01.832Z,60.66
2018-07-07T02:03:01.816Z,60.92
2018-07-07T02:04:01.792Z,61.33
2018-07-07T02:05:01.842Z,61.40
2018-07-07T02:06:01.845Z,61.69
2018-07-07T02:07:01.862Z,61.62
2018-07-07T02:08:01.876Z,61.69
2018-07-07T02:09:01.887Z,61.62
2018-07-07T02:10:01.827Z,62.29
2018-07-07T02:11:01.907Z,61.14
2018-07-07T02:12:01.883Z,61.81
2018-07-07T02:13:01.873Z,61.78
2018-07-07T02:14:01.863Z,62.10
2018-07-07T02:15:01.871Z,62.48
2018-07-07T02:16:01.869Z,62.84
2018-07-07T02:17:01.860Z,63.32
2018-07-07T02:18:01.860Z,63.32
2018-07-07T02:19:01.860Z,63.42
2018-07-07T02:20:01.832Z,63.32
2018-07-07T02:21:01.859Z,63.70
2018-07-07T02:22:01.866Z,63.79
2018-07-07T02:23:01.828Z,63.99
2018-07-07T02:24:01.823Z,63.60
2018-07-07T02:25:01.836Z,63.92
2018-07-07T02:26:01.833Z,63.70
2018-07-07T02:27:01.831Z,64.02
2018-07-07T02:28:01.830Z,64.56
2018-07-07T02:29:01.850Z,64.37
2018-07-07T02:30:01.837Z,64.37
2018-07-07T02:31:01.845Z,64.76
2018-07-07T02:32:01.831Z,64.85
2018-07-07T02:33:01.799Z,65.33
2018-07-07T02:34:01.852Z,65.05
2018-07-07T02:35:01.860Z,65.14
2018-07-07T02:36:03.633Z,65.23
2018-07-07T02:37:01.918Z,64.76
2018-07-07T02:38:01.943Z,64.95
2018-07-07T02:39:01.859Z,65.33
2018-07-07T02:40:01.918Z,65.62
2018-07-07T02:41:01.937Z,66.19
2018-07-07T02:42:01.823Z,66.19
2018-07-07T02:43:01.926Z,66.10
2018-07-07T02:44:01.920Z,66.39
2018-07-07T02:45:01.950Z,66.49
2018-07-07T02:46:01.859Z,66.77
2018-07-07T02:47:01.859Z,66.96
2018-07-07T02:48:01.887Z,67.25
2018-07-07T02:49:01.922Z,67.54
2018-07-07T02:50:02.061Z,67.73
2018-07-07T02:51:01.894Z,67.73
2018-07-07T02:52:01.860Z,68.02
2018-07-07T02:53:01.783Z,68.12
2018-07-07T02:54:01.901Z,67.92
2018-07-07T02:55:01.887Z,67.54
2018-07-07T02:56:01.856Z,68.12
2018-07-07T02:57:01.798Z,68.40
2018-07-07T02:58:01.877Z,68.59
2018-07-07T02:59:01.789Z,68.79
2018-07-07T03:00:01.905Z,69.07
2018-07-07T03:01:01.853Z,68.30
2018-07-07T03:02:01.871Z,68.69
2018-07-07T03:03:01.851Z,69.07
2018-07-07T03:04:01.853Z,69.93
2018-07-07T03:05:01.843Z,69.33
2018-07-07T03:06:01.869Z,69.42
2018-07-07T03:07:01.813Z,69.23
2018-07-07T03:08:01.862Z,69.42
2018-07-07T03:09:01.852Z,69.81
2018-07-07T03:10:01.886Z,70.19
2018-07-07T03:11:01.916Z,69.84
2018-07-07T03:12:01.952Z,69.56
2018-07-07T03:13:01.887Z,69.81
2018-07-07T03:14:01.937Z,70.38
2018-07-07T03:15:01.943Z,70.38
2018-07-07T03:16:01.902Z,70.00
2018-07-07T03:17:01.954Z,70.19
2018-07-07T03:18:01.851Z,70.19
2018-07-07T03:19:01.908Z,70.48
2018-07-07T03:20:01.930Z,69.90
2018-07-07T03:21:01.955Z,70.48
2018-07-07T03:22:01.974Z,70.57
2018-07-07T03:23:01.938Z,70.57
2018-07-07T03:24:01.963Z,70.86
2018-07-07T03:25:01.875Z,70.76
2018-07-07T03:26:01.869Z,70.76
2018-07-07T03:27:01.903Z,70.76
2018-07-07T03:28:01.968Z,70.76
2018-07-07T03:29:01.858Z,70.86
2018-07-07T03:30:01.931Z,70.67
2018-07-07T03:31:01.967Z,70.96
2018-07-07T03:32:01.903Z,71.63
2018-07-07T03:33:01.930Z,71.53
2018-07-07T03:34:01.896Z,70.86
2018-07-07T03:35:01.856Z,71.53
2018-07-07T03:36:01.928Z,71.53
2018-07-07T03:37:01.921Z,71.34
2018-07-07T03:38:01.973Z,71.63
2018-07-07T03:39:01.917Z,71.34
2018-07-07T03:40:01.977Z,72.01
2018-07-07T03:41:01.867Z,72.30
2018-07-07T03:42:01.916Z,71.92
2018-07-07T03:43:01.943Z,72.11
2018-07-07T03:44:01.868Z,72.59
2018-07-07T03:45:01.950Z,72.11
2018-07-07T03:46:01.874Z,72.11
2018-07-07T03:47:01.953Z,72.49
2018-07-07T03:48:01.998Z,72.39
2018-07-07T03:49:01.947Z,72.59
2018-07-07T03:50:01.877Z,72.30
2018-07-07T03:51:01.926Z,72.74
2018-07-07T03:52:01.957Z,72.78
2018-07-07T03:53:01.953Z,72.78
2018-07-07T03:54:01.934Z,72.59
2018-07-07T03:55:03.730Z,73.03
2018-07-07T03:56:01.910Z,73.32
2018-07-07T03:57:01.901Z,73.80
2018-07-07T03:58:01.965Z,73.51
2018-07-07T03:59:01.982Z,73.90
2018-07-07T04:00:01.928Z,73.26
2018-07-07T04:01:01.901Z,73.99
2018-07-07T04:02:01.896Z,73.35
2018-07-07T04:03:01.916Z,72.97
2018-07-07T04:04:01.918Z,73.35
2018-07-07T04:05:01.904Z,73.32
2018-07-07T04:06:01.946Z,73.80
2018-07-07T04:07:01.937Z,73.99
2018-07-07T04:08:01.963Z,73.41
2018-07-07T04:09:01.989Z,73.55
2018-07-07T04:10:01.948Z,73.93
2018-07-07T04:11:01.860Z,73.93
2018-07-07T04:12:01.943Z,73.61
2018-07-07T04:13:01.939Z,73.99
2018-07-07T04:14:01.867Z,73.90
2018-07-07T04:15:01.945Z,73.90
2018-07-07T04:16:02.097Z,73.65
2018-07-07T04:17:01.955Z,74.08
2018-07-07T04:18:01.727Z,73.90
2018-07-07T04:19:01.755Z,74.02
2018-07-07T04:20:01.722Z,73.80
2018-07-07T04:21:01.713Z,73.83
2018-07-07T04:22:01.738Z,74.02
2018-07-07T04:23:01.782Z,73.90
2018-07-07T04:24:01.775Z,74.37
2018-07-07T04:25:01.791Z,73.90
2018-07-07T04:26:01.712Z,74.51
2018-07-07T04:27:01.707Z,73.93
2018-07-07T04:28:01.817Z,73.90
2018-07-07T04:29:01.561Z,73.90
2018-07-07T04:30:01.493Z,74.85
2018-07-07T04:31:01.461Z,74.08
2018-07-07T04:32:01.868Z,74.47
2018-07-07T04:33:01.695Z,74.41
2018-07-07T04:34:01.733Z,73.93
2018-07-07T04:35:01.700Z,74.02
2018-07-07T04:36:01.719Z,73.93
2018-07-07T04:37:02.151Z,73.83
2018-07-07T04:38:03.401Z,74.41
2018-07-07T04:39:03.622Z,74.41
2018-07-07T04:40:01.619Z,74.51
2018-07-07T04:41:01.602Z,74.22
2018-07-07T04:42:03.406Z,74.89
2018-07-07T04:43:03.390Z,74.22
2018-07-07T04:44:01.605Z,74.60
2018-07-07T04:45:01.976Z,74.79
2018-07-07T04:46:03.526Z,74.51
2018-07-07T04:47:01.857Z,74.22
2018-07-07T04:48:01.715Z,73.93
2018-07-07T04:49:01.724Z,74.89
2018-07-07T04:50:02.160Z,74.89
2018-07-07T04:51:01.623Z,74.12
2018-07-07T04:52:01.623Z,74.51
2018-07-07T04:53:01.611Z,74.12
2018-07-07T04:54:01.604Z,74.60
2018-07-07T04:55:01.620Z,74.60
2018-07-07T04:56:01.665Z,74.22
2018-07-07T04:57:01.626Z,74.60
2018-07-07T04:58:01.630Z,74.51
2018-07-07T04:59:01.709Z,74.60
2018-07-07T05:00:01.656Z,74.79
2018-07-07T05:01:01.472Z,74.51
2018-07-07T05:02:01.607Z,74.79
2018-07-07T05:03:01.630Z,74.69
2018-07-07T05:04:01.629Z,73.77
2018-07-07T05:05:01.560Z,73.74
2018-07-07T05:06:00.151Z,74.35
2018-07-07T05:07:02.048Z,74.31
2018-07-07T05:08:01.971Z,73.97
2018-07-07T05:09:03.347Z,74.16
2018-07-07T05:10:01.395Z,74.60
2018-07-07T05:11:01.505Z,74.44
2018-07-07T05:12:01.633Z,74.44
2018-07-07T05:13:01.632Z,74.83
2018-07-07T05:14:01.668Z,74.64
2018-07-07T05:15:01.964Z,74.35
2018-07-07T05:16:01.621Z,75.50
2018-07-07T05:17:01.507Z,75.31
2018-07-07T05:18:01.613Z,75.37
2018-07-07T05:19:01.856Z,75.40
2018-07-07T05:20:01.198Z,75.31
2018-07-07T05:21:01.542Z,75.40
2018-07-07T05:22:01.570Z,75.79
2018-07-07T05:23:01.613Z,75.89
2018-07-07T05:24:01.572Z,75.79
2018-07-07T05:25:01.607Z,76.07
2018-07-07T05:26:01.533Z,75.98
2018-07-07T05:27:01.720Z,75.70
2018-07-07T05:28:01.554Z,76.27
2018-07-07T05:29:01.696Z,75.89
2018-07-07T05:30:03.461Z,75.98
2018-07-07T05:31:01.690Z,76.65
2018-07-07T05:32:01.591Z,76.46
2018-07-07T05:33:01.575Z,76.94
2018-07-07T05:34:01.860Z,76.84
2018-07-07T05:35:01.205Z,77.13
2018-07-07T05:36:01.563Z,77.26
2018-07-07T05:37:01.572Z,77.17
2018-07-07T05:38:01.571Z,77.33
2018-07-07T05:39:01.803Z,76.94
2018-07-07T05:40:01.434Z,77.75
2018-07-07T05:41:01.214Z,77.65
2018-07-07T05:42:01.506Z,77.84
2018-07-07T05:43:01.574Z,77.65
2018-07-07T05:44:01.596Z,78.28
2018-07-07T05:45:03.418Z,77.84
2018-07-07T05:46:01.675Z,78.70
2018-07-07T05:47:01.618Z,79.44
2018-07-07T05:48:01.584Z,79.72
2018-07-07T05:49:01.252Z,79.91
2018-07-07T05:50:01.751Z,80.01
2018-07-07T05:51:01.603Z,80.58
2018-07-07T05:52:01.710Z,79.09
2018-07-07T05:53:01.670Z,78.80
2018-07-07T05:54:01.663Z,78.61
2018-07-07T05:55:01.728Z,78.61
2018-07-07T05:56:03.579Z,78.80
2018-07-07T05:57:01.985Z,78.90
2018-07-07T05:58:01.225Z,78.70
2018-07-07T05:59:01.664Z,78.70
2018-07-07T06:00:01.653Z,78.52
2018-07-07T06:01:01.704Z,78.42
2018-07-07T06:02:01.623Z,77.56
2018-07-07T06:03:01.660Z,78.61
2018-07-07T06:04:01.736Z,78.23
2018-07-07T06:05:01.688Z,78.23
2018-07-07T06:06:01.703Z,77.59
2018-07-07T06:07:07.383Z,76.92
2018-07-07T06:08:01.562Z,76.64
2018-07-07T06:09:01.679Z,77.01
2018-07-07T06:10:01.609Z,76.82
2018-07-07T06:11:01.509Z,77.94
2018-07-07T06:12:01.502Z,78.13
2018-07-07T06:13:01.590Z,78.32
2018-07-07T06:14:01.551Z,78.23
2018-07-07T06:15:01.503Z,78.17
2018-07-07T06:16:01.535Z,77.98
2018-07-07T06:17:01.599Z,77.50
2018-07-07T06:18:01.467Z,77.59
2018-07-07T06:19:01.535Z,77.11
2018-07-07T06:20:02.131Z,77.65
2018-07-07T06:21:01.595Z,78.03
2018-07-07T06:22:01.543Z,77.98
2018-07-07T06:23:01.541Z,78.42
2018-07-07T06:24:01.549Z,78.08
2018-07-07T06:25:01.513Z,77.78
2018-07-07T06:26:01.707Z,77.50
2018-07-07T06:27:01.647Z,78.27
2018-07-07T06:28:02.269Z,78.17
2018-07-07T06:29:01.648Z,78.27
2018-07-07T06:30:02.140Z,78.17
2018-07-07T06:31:01.921Z,77.78
2018-07-07T06:32:01.234Z,77.40
2018-07-07T06:33:01.592Z,77.11
2018-07-07T06:35:01.797Z,76.54
2018-07-07T06:36:01.717Z,76.15
2018-07-07T06:37:01.664Z,75.96
2018-07-07T06:38:01.499Z,74.52
2018-07-07T06:39:01.510Z,74.62
2018-07-07T06:40:01.546Z,74.04
2018-07-07T06:41:01.547Z,74.81
2018-07-07T06:42:01.531Z,73.75
2018-07-07T06:43:01.499Z,74.04
2018-07-07T06:44:01.522Z,75.20
2018-07-07T06:45:01.527Z,74.43
2018-07-07T06:46:01.513Z,74.75
2018-07-07T06:47:01.584Z,74.04
2018-07-07T06:48:01.257Z,73.50
2018-07-07T06:49:01.478Z,72.60
2018-07-07T06:50:01.504Z,73.41
2018-07-07T06:51:01.562Z,73.50
2018-07-07T06:52:01.699Z,73.41
2018-07-07T06:53:01.636Z,72.83
2018-07-07T06:54:01.768Z,72.73
2018-07-07T06:55:01.551Z,72.64
2018-07-07T06:56:01.597Z,71.48
2018-07-07T06:57:01.608Z,71.67
2018-07-07T06:58:01.590Z,72.44
2018-07-07T06:59:01.596Z,71.19
2018-07-07T07:00:01.860Z,71.29
2018-07-07T07:01:01.510Z,71.10
2018-07-07T07:02:01.655Z,71.73
2018-07-07T07:03:01.629Z,70.90
2018-07-07T07:04:02.142Z,71.67
2018-07-07T07:05:01.092Z,71.58
2018-07-07T07:06:01.377Z,71.67
2018-07-07T07:07:01.412Z,71.39
2018-07-07T07:08:01.666Z,71.19
2018-07-07T07:09:01.423Z,71.29
2018-07-07T07:10:01.449Z,71.29
2018-07-07T07:11:01.404Z,71.61
2018-07-07T07:12:01.449Z,70.75
2018-07-07T07:13:01.478Z,69.95
2018-07-07T07:14:01.480Z,70.23
2018-07-07T07:15:01.663Z,70.81
2018-07-07T07:16:01.712Z,70.81
2018-07-07T07:17:01.274Z,69.95
2018-07-07T07:18:02.265Z,69.98
2018-07-07T07:19:01.524Z,69.60
2018-07-07T07:20:02.132Z,69.21
